Time;durP1;ratioP1;P1;durP2;ratioP2;P2;SDS_P1;SDS_P2;PMS_P1;PMS_P2;Temp;Humidity;BMP_temperature;BMP_pressure;BME280_temperature;BME280_humidity;BME280_pressure;Samples;Min_cycle;Max_cycle;Signal;HPM_P1;HPM_P2
2023/04/28 00:01:25;;;;;;;;;7.00;5.67;;;;;22.50;79.01;100433.88;4867898;29;45444;-84
2023/04/28 00:03:50;;;;;;;;;5.00;5.00;;;;;22.47;79.23;100430.41;4853127;29;45489;-84
2023/04/28 00:09:37;;;;;;;;;7.33;5.00;;;;;22.44;80.32;100427.81;4867637;29;45398;-83
2023/04/28 00:12:03;;;;;;;;;6.00;4.00;;;;;22.45;81.04;100430.47;4867683;29;45332;-83
2023/04/28 00:14:28;;;;;;;;;4.00;4.00;;;;;22.33;80.82;100430.94;4852558;29;45673;-84
2023/04/28 00:16:55;;;;;;;;;7.00;5.67;;;;;22.37;81.19;100433.47;4869857;29;45650;-84
2023/04/28 00:19:22;;;;;;;;;6.67;5.00;;;;;22.57;81.23;100429.09;4866823;29;45471;-84
2023/04/28 00:21:47;;;;;;;;;6.67;4.67;;;;;22.33;82.01;100430.94;4867935;29;45497;-84
2023/04/28 00:24:12;;;;;;;;;4.67;4.67;;;;;22.31;81.64;100428.28;4852047;29;45378;-84
2023/04/28 00:26:38;;;;;;;;;7.67;6.67;;;;;22.30;81.82;100436.47;4852318;29;47896;-84
2023/04/28 00:29:03;;;;;;;;;4.67;4.67;;;;;22.31;81.79;100438.25;4852057;29;45871;-83
2023/04/28 00:31:30;;;;;;;;;4.33;4.00;;;;;22.67;81.94;100443.16;4848880;29;45351;-83
2023/04/28 00:33:55;;;;;;;;;4.00;4.00;;;;;22.41;81.73;100442.34;4850048;29;45506;-83
2023/04/28 00:36:20;;;;;;;;;3.00;3.00;;;;;22.47;81.17;100436.69;4844104;29;46173;-83
2023/04/28 00:38:46;;;;;;;;;4.33;4.33;;;;;22.56;80.82;100446.28;4829196;29;45977;-82
2023/04/28 00:41:11;;;;;;;;;4.00;4.00;;;;;22.55;81.42;100431.84;4829721;29;45922;-84
2023/04/28 00:43:47;;;;;;;;;4.33;3.00;;;;;22.95;80.50;100416.66;4832129;29;45457;-83
2023/04/28 00:46:28;;;;;;;;;4.67;4.67;;;;;22.77;81.88;100415.59;4830322;29;45683;-83
2023/04/28 00:48:54;;;;;;;;;3.75;3.75;;;;;22.37;82.49;100414.50;4830909;29;45504;-83
2023/04/28 00:51:20;;;;;;;;;7.00;6.33;;;;;22.34;82.51;100420.06;4830966;29;45382;-84
2023/04/28 00:53:46;;;;;;;;;7.67;6.67;;;;;22.30;83.43;100412.09;4829967;29;45482;-83
2023/04/28 00:56:12;;;;;;;;;6.00;6.00;;;;;22.17;83.75;100409.84;4830527;29;47154;-84
2023/04/28 00:58:37;;;;;;;;;4.00;4.00;;;;;22.18;84.12;100414.31;4830731;29;45459;-84
2023/04/28 01:01:04;;;;;;;;;4.00;4.00;;;;;22.30;84.31;100421.13;4828801;29;45556;-84
2023/04/28 01:03:33;;;;;;;;;3.50;3.50;;;;;22.32;84.24;100419.22;4829925;29;45466;-83
2023/04/28 01:05:59;;;;;;;;;4.33;3.00;;;;;22.16;84.61;100424.34;4829948;29;45491;-83
2023/04/28 01:08:28;;;;;;;;;3.67;3.67;;;;;22.50;84.68;100423.03;4830545;29;45450;-83
2023/04/28 01:10:54;;;;;;;;;3.25;3.25;;;;;22.22;84.66;100411.47;4828774;29;45618;-84
2023/04/28 01:13:19;;;;;;;;;3.00;2.75;;;;;22.22;84.05;100409.69;4832036;29;45516;-83
2023/04/28 01:15:45;;;;;;;;;2.75;2.75;;;;;22.25;83.82;100412.28;4829680;29;45456;-82
2023/04/28 01:18:11;;;;;;;;;5.25;4.00;;;;;22.22;84.27;100416.91;4828084;29;45738;-84
2023/04/28 01:20:36;;;;;;;;;2.50;2.50;;;;;22.29;83.80;100410.34;4831932;29;45524;-83
2023/04/28 01:23:01;;;;;;;;;5.00;3.50;;;;;22.17;84.78;100414.38;4830926;29;45513;-84
2023/04/28 01:25:27;;;;;;;;;3.25;3.25;;;;;22.25;84.54;100427.66;4830485;29;46303;-83
2023/04/28 01:27:52;;;;;;;;;2.25;2.25;;;;;22.31;84.14;100427.41;4828137;29;45503;-84
2023/04/28 01:30:17;;;;;;;;;3.00;3.00;;;;;22.26;85.07;100422.19;4858014;29;45718;-83
2023/04/28 01:32:43;;;;;;;;;4.50;4.00;;;;;22.27;85.11;100413.09;4851231;29;53760;-83
2023/04/28 01:35:08;;;;;;;;;4.00;3.25;;;;;22.36;84.58;100411.88;4867628;29;47560;-83
2023/04/28 01:37:34;;;;;;;;;3.00;3.00;;;;;22.40;84.16;100409.91;4867372;29;45410;-84
2023/04/28 01:39:59;;;;;;;;;2.00;2.00;;;;;22.39;84.19;100411.75;4864876;29;45383;-84
2023/04/28 01:42:24;;;;;;;;;5.00;4.00;;;;;22.31;84.77;100411.16;4850178;29;45281;-84
2023/04/28 01:44:51;;;;;;;;;3.00;3.00;;;;;22.51;85.62;100396.81;4864936;29;47269;-84
2023/04/28 01:47:16;;;;;;;;;3.25;3.25;;;;;22.17;84.89;100412.53;4865798;29;45393;-84
2023/04/28 01:49:42;;;;;;;;;2.75;2.75;;;;;22.16;84.79;100407.22;4850525;29;45358;-83
2023/04/28 01:52:07;;;;;;;;;2.00;2.00;;;;;22.18;85.21;100406.19;4867069;29;45812;-83
2023/04/28 01:54:32;;;;;;;;;4.25;4.25;;;;;22.20;85.46;100407.94;4866725;29;47050;-83
2023/04/28 01:56:59;;;;;;;;;3.00;3.00;;;;;22.48;85.49;100408.66;4865064;29;45694;-83
2023/04/28 01:59:24;;;;;;;;;3.00;3.00;;;;;22.19;85.64;100404.38;4864461;29;45499;-83
2023/04/28 02:01:50;;;;;;;;;4.00;3.00;;;;;22.14;85.72;100412.69;4868150;29;45367;-83
2023/04/28 02:04:15;;;;;;;;;2.50;2.50;;;;;22.05;85.90;100404.91;4865816;29;49973;-84
2023/04/28 02:06:40;;;;;;;;;5.00;4.00;;;;;22.06;86.22;100397.69;4865480;29;45456;-83
2023/04/28 02:09:06;;;;;;;;;3.00;3.00;;;;;22.04;86.56;100403.16;4865241;29;45463;-83
2023/04/28 02:11:38;;;;;;;;;5.00;3.67;;;;;22.50;86.89;100412.19;4868209;29;44888;-83
2023/04/28 02:14:03;;;;;;;;;2.75;2.75;;;;;21.93;87.10;100402.66;4864559;29;48560;-83
2023/04/28 02:16:28;;;;;;;;;2.00;2.00;;;;;21.97;88.10;100417.84;4865290;29;46367;-83
2023/04/28 02:18:54;;;;;;;;;2.00;2.00;;;;;21.92;87.81;100420.75;4866863;29;45524;-82
2023/04/28 02:21:19;;;;;;;;;4.00;3.50;;;;;21.92;87.02;100409.91;4866637;29;45311;-82
2023/04/28 02:23:45;;;;;;;;;2.00;2.00;;;;;21.94;87.28;100415.28;4865873;29;45469;-83
2023/04/28 02:26:10;;;;;;;;;3.00;2.75;;;;;21.96;86.62;100413.41;4865080;29;45686;-82
2023/04/28 02:28:36;;;;;;;;;4.00;2.00;;;;;21.99;86.93;100424.09;4866146;29;45510;-83
2023/04/28 02:34:23;;;;;;;;;2.25;2.00;;;;;22.11;86.46;100437.16;4847738;29;45553;-83
2023/04/28 02:36:48;;;;;;;;;2.25;2.25;;;;;22.11;86.69;100425.44;4846711;29;45401;-83
2023/04/28 02:39:14;;;;;;;;;2.75;2.75;;;;;22.15;86.42;100422.56;4845752;29;45741;-83
2023/04/28 02:41:39;;;;;;;;;1.00;1.00;;;;;22.10;86.71;100412.88;4847436;29;45437;-83
2023/04/28 02:44:04;;;;;;;;;3.67;2.00;;;;;22.14;86.32;100414.50;4830344;29;47073;-83
2023/04/28 02:46:30;;;;;;;;;1.00;1.00;;;;;22.14;86.54;100409.97;4845265;29;45827;-83
2023/04/28 02:48:55;;;;;;;;;3.00;1.25;;;;;22.15;86.03;100417.13;4847939;29;45326;-83
2023/04/28 02:51:20;;;;;;;;;1.00;1.00;;;;;22.16;85.86;100418.91;4846020;29;45404;-83
2023/04/28 02:53:46;;;;;;;;;5.00;1.00;;;;;22.17;86.30;100408.97;4846296;29;45441;-83
2023/04/28 02:56:11;;;;;;;;;2.00;2.00;;;;;22.18;86.10;100406.19;4846420;29;45828;-83
2023/04/28 02:58:36;;;;;;;;;2.67;2.00;;;;;22.20;86.19;100416.06;4847252;29;45372;-82
2023/04/28 03:01:02;;;;;;;;;1.00;1.00;;;;;22.24;85.99;100432.22;4846731;29;47582;-83
2023/04/28 03:03:27;;;;;;;;;1.00;1.00;;;;;22.22;86.08;100416.91;4845443;29;46124;-83
2023/04/28 03:05:55;;;;;;;;;1.00;1.00;;;;;22.20;86.01;100413.38;4845673;29;45453;-83
2023/04/28 03:08:21;;;;;;;;;2.00;2.00;;;;;22.19;85.64;100412.50;4845572;29;45347;-83
2023/04/28 03:10:46;;;;;;;;;1.75;1.00;;;;;22.21;85.23;100420.56;4846838;29;45713;-83
2023/04/28 03:13:11;;;;;;;;;1.00;1.00;;;;;22.14;85.41;100404.56;4847260;29;45390;-83
2023/04/28 03:15:37;;;;;;;;;1.25;1.25;;;;;22.20;85.30;100418.78;4847477;29;45357;-82
2023/04/28 03:18:02;;;;;;;;;1.50;0.75;;;;;22.16;85.68;100420.75;4849026;29;45492;-83
2023/04/28 03:20:34;;;;;;;;;1.00;1.00;;;;;22.12;90.90;100406.44;4847856;29;45504;-83
2023/04/28 03:23:01;;;;;;;;;1.25;1.25;;;;;22.06;91.02;100413.94;4844500;29;47056;-82
2023/04/28 03:25:26;;;;;;;;;1.00;1.00;;;;;22.08;90.90;100420.16;4846645;29;45861;-82
2023/04/28 03:27:52;;;;;;;;;2.00;2.00;;;;;22.11;90.76;100418.19;4847491;29;45489;-82
2023/04/28 03:30:17;;;;;;;;;2.00;1.00;;;;;22.12;90.42;100428.09;4851593;29;45466;-83
2023/04/28 03:32:42;;;;;;;;;0.50;0.50;;;;;22.12;90.51;100424.53;4864455;29;46004;-83
2023/04/28 03:35:08;;;;;;;;;0.75;0.75;;;;;22.11;89.72;100410.06;4866032;29;45753;-83
2023/04/28 03:37:33;;;;;;;;;1.75;1.00;;;;;22.13;88.81;100420.84;4848841;29;45413;-83
2023/04/28 03:39:59;;;;;;;;;1.00;1.00;;;;;22.08;89.16;100414.75;4848909;29;45417;-83
2023/04/28 03:42:26;;;;;;;;;1.00;1.00;;;;;22.42;87.32;100421.56;4865268;29;45550;-84
2023/04/28 03:44:51;;;;;;;;;0.00;0.00;;;;;22.08;86.83;100404.78;4863702;29;45385;-83
2023/04/28 03:47:16;;;;;;;;;1.00;1.00;;;;;22.07;86.54;100402.13;4864971;29;45889;-83
2023/04/28 03:49:42;;;;;;;;;0.00;0.00;;;;;22.08;86.51;100407.50;4848626;29;45369;-83
2023/04/28 03:52:07;;;;;;;;;0.75;0.75;;;;;22.08;86.06;100410.22;4846851;29;48159;-83
2023/04/28 03:54:34;;;;;;;;;0.00;0.00;;;;;22.39;86.04;100414.44;4863546;29;45717;-83
2023/04/28 03:57:00;;;;;;;;;1.00;1.00;;;;;22.07;86.00;100408.44;4865083;29;45432;-83
2023/04/28 03:59:26;;;;;;;;;1.00;1.00;;;;;22.06;85.24;100413.94;4864590;29;45582;-83
2023/04/28 04:01:51;;;;;;;;;1.00;1.00;;;;;22.06;85.23;100414.81;4865530;29;45443;-83
2023/04/28 04:04:17;;;;;;;;;0.75;0.75;;;;;22.05;85.45;100410.31;4865060;29;46035;-83
2023/04/28 04:10:06;;;;;;;;;1.00;1.00;;;;;22.38;85.35;100412.69;4867108;29;45450;-84
2023/04/28 04:12:31;;;;;;;;;0.00;0.00;;;;;22.05;85.20;100406.72;4849656;29;47346;-84
2023/04/28 04:14:56;;;;;;;;;0.00;0.00;;;;;22.06;84.95;100414.81;4866712;29;45626;-83
2023/04/28 04:17:22;;;;;;;;;0.00;0.00;;;;;22.11;85.14;100412.78;4868425;29;45416;-83
2023/04/28 04:19:47;;;;;;;;;1.00;1.00;;;;;22.11;84.77;100415.50;4868225;29;45412;-82
2023/04/28 04:22:12;;;;;;;;;0.00;0.00;;;;;22.08;85.07;100415.63;4849703;29;47941;-83
2023/04/28 04:24:38;;;;;;;;;1.00;1.00;;;;;22.10;84.71;100423.69;4848247;29;45990;-83
2023/04/28 04:27:03;;;;;;;;;0.75;0.75;;;;;22.11;84.78;100418.19;4833126;29;45417;-83
2023/04/28 04:29:28;;;;;;;;;1.75;1.75;;;;;22.10;84.63;100423.69;4851039;29;45300;-83
2023/04/28 04:31:54;;;;;;;;;1.00;1.00;;;;;22.04;84.74;100419.41;4848829;29;45405;-82
2023/04/28 04:34:20;;;;;;;;;1.00;1.00;;;;;22.32;84.66;100423.78;4848191;29;45474;-83
2023/04/28 04:36:46;;;;;;;;;0.50;0.50;;;;;22.05;84.42;100433.81;4832601;29;45546;-83
2023/04/28 04:39:11;;;;;;;;;0.00;0.00;;;;;22.05;84.61;100429.28;4838831;29;45621;-83
2023/04/28 04:41:37;;;;;;;;;1.00;1.00;;;;;21.95;84.28;100420.63;4831063;29;46319;-83
2023/04/28 04:44:03;;;;;;;;;0.50;0.50;;;;;21.98;84.64;100425.06;4831026;29;45567;-83
2023/04/28 04:46:28;;;;;;;;;1.00;1.00;;;;;22.00;84.33;100434.00;4829680;29;45352;-83
2023/04/28 04:48:54;;;;;;;;;1.00;1.00;;;;;22.03;84.52;100435.69;4830582;29;45397;-84
2023/04/28 04:54:41;;;;;;;;;0.50;0.50;;;;;22.06;83.64;100443.72;4831076;29;44968;-83
2023/04/28 04:57:06;;;;;;;;;0.00;0.00;;;;;22.09;84.14;100439.03;4832121;29;45470;-82
2023/04/28 04:59:32;;;;;;;;;0.00;0.00;;;;;22.03;83.92;100447.41;4830728;29;45461;-83
2023/04/28 05:01:57;;;;;;;;;0.00;0.00;;;;;22.01;83.95;100435.75;4832493;29;46781;-83
2023/04/28 05:04:23;;;;;;;;;1.00;1.00;;;;;22.04;84.13;100441.06;4830404;29;45417;-83
2023/04/28 05:06:48;;;;;;;;;1.00;1.00;;;;;22.09;83.91;100449.00;4830427;29;45419;-83
2023/04/28 05:12:35;;;;;;;;;1.75;0.75;;;;;22.06;84.02;100447.31;4830281;29;45422;-83
2023/04/28 05:15:00;;;;;;;;;0.00;0.00;;;;;22.12;83.91;100438.94;4829392;29;45440;-83
2023/04/28 05:17:26;;;;;;;;;0.00;0.00;;;;;22.11;83.76;100448.00;4829959;29;45479;-83
2023/04/28 05:19:51;;;;;;;;;0.00;0.00;;;;;22.07;83.36;100440.94;4832295;29;45534;-84
2023/04/28 05:22:16;;;;;;;;;0.00;0.00;;;;;22.08;84.10;100437.28;4849147;29;45592;-84
2023/04/28 05:24:42;;;;;;;;;0.50;0.50;;;;;22.10;84.02;100440.81;4846073;29;45545;-83
2023/04/28 05:27:07;;;;;;;;;1.00;1.00;;;;;22.11;83.32;100448.00;4849408;29;45439;-84
2023/04/28 05:29:32;;;;;;;;;1.00;1.00;;;;;22.12;83.21;100432.66;4849690;29;45729;-83
2023/04/28 05:31:58;;;;;;;;;0.00;0.00;;;;;22.12;83.01;100441.66;4849143;29;45746;-82
2023/04/28 05:34:23;;;;;;;;;1.00;1.00;;;;;22.18;82.94;100441.41;4849901;29;45525;-83
2023/04/28 05:36:49;;;;;;;;;0.00;0.00;;;;;22.11;83.20;100441.69;4857337;29;45494;-83
2023/04/28 05:42:37;;;;;;;;;0.00;0.00;;;;;22.16;82.58;100446.00;4869045;29;45469;-84
2023/04/28 05:45:03;;;;;;;;;0.50;0.50;;;;;22.25;82.82;100460.16;4851210;29;45335;-84
2023/04/28 05:47:29;;;;;;;;;0.33;0.33;;;;;22.24;82.20;100448.47;4866876;29;45774;-84
2023/04/28 05:49:55;;;;;;;;;0.00;0.00;;;;;22.23;82.40;100445.75;4854372;29;45517;-83
2023/04/28 05:52:20;;;;;;;;;1.00;1.00;;;;;22.23;82.43;100440.34;4868535;29;48017;-84
2023/04/28 05:54:47;;;;;;;;;1.00;1.00;;;;;22.60;82.91;100450.63;4852464;29;45565;-83
2023/04/28 05:57:14;;;;;;;;;1.00;1.00;;;;;22.50;82.81;100457.38;4868010;29;54590;-84
2023/04/28 05:59:39;;;;;;;;;0.00;0.00;;;;;22.32;81.80;100450.88;4854638;29;45342;-83
2023/04/28 06:02:05;;;;;;;;;0.00;0.00;;;;;22.40;82.04;100459.56;4867297;29;47096;-83
2023/04/28 06:04:31;;;;;;;;;1.00;1.00;;;;;22.26;82.33;100451.09;4850039;29;46525;-83
2023/04/28 06:06:58;;;;;;;;;2.00;2.00;;;;;22.61;82.26;100456.94;4866333;29;45769;-83
2023/04/28 06:09:23;;;;;;;;;1.75;1.75;;;;;22.34;82.18;100465.25;4851547;29;45475;-83
2023/04/28 06:11:48;;;;;;;;;1.00;1.00;;;;;22.33;81.84;100456.22;4868427;29;47107;-83
2023/04/28 06:14:14;;;;;;;;;1.00;1.00;;;;;22.38;81.70;100461.47;4868369;29;45383;-83
2023/04/28 06:16:39;;;;;;;;;2.00;1.00;;;;;22.43;82.25;100463.97;4869655;29;45441;-82
2023/04/28 06:22:33;;;;;;;;;0.50;0.50;;;;;23.09;80.47;100475.75;4866271;29;45594;-83
2023/04/28 06:24:58;;;;;;;;;1.00;1.00;;;;;22.61;80.69;100465.97;4867701;29;45423;-83
2023/04/28 06:27:24;;;;;;;;;1.00;1.00;;;;;22.72;80.73;100476.34;4870214;29;45862;-83
2023/04/28 06:29:50;;;;;;;;;0.50;0.50;;;;;22.70;80.22;100472.81;4865105;29;45405;-83
2023/04/28 06:32:15;;;;;;;;;0.00;0.00;;;;;22.79;79.73;100471.59;4868577;29;48157;-83
2023/04/28 06:34:42;;;;;;;;;2.00;2.00;;;;;23.15;80.07;100470.09;4871535;29;45375;-83
2023/04/28 06:37:07;;;;;;;;;2.00;2.00;;;;;22.91;80.06;100462.94;4871494;29;45514;-82
2023/04/28 06:39:33;;;;;;;;;1.50;1.50;;;;;23.07;79.31;100466.81;4852163;29;45478;-83
2023/04/28 06:42:00;;;;;;;;;0.75;0.75;;;;;23.17;78.43;100476.31;4868869;29;45382;-84
2023/04/28 06:44:26;;;;;;;;;1.50;1.50;;;;;23.16;77.82;100473.66;4869297;29;45507;-84
2023/04/28 06:47:01;;;;;;;;;1.00;1.00;;;;;23.80;77.10;100472.72;4847446;29;45437;-84
2023/04/28 06:49:26;;;;;;;;;4.50;4.50;;;;;23.30;77.64;100476.66;4851839;29;45571;-84
2023/04/28 06:51:51;;;;;;;;;3.75;2.50;;;;;23.33;76.93;100479.28;4833550;29;46929;-84
2023/04/28 06:54:41;;;;;;;;;1.25;1.25;;;;;23.79;76.23;100472.78;4833320;29;45394;-84
2023/04/28 06:57:11;;;;;;;;;1.25;1.25;;;;;23.61;76.69;100472.59;4846400;29;46005;-83
2023/04/28 07:07:11;;;;;;;;;;;;;;;;;;;;;
2023/04/28 07:09:38;;;;;;;;;2.00;2.00;;;;;23.59;75.31;100471.78;4831588;29;68029;-82
2023/04/28 07:12:07;;;;;;;;;1.25;1.25;;;;;23.69;74.86;100465.03;4832585;29;45396;-83
2023/04/28 07:14:33;;;;;;;;;3.33;2.00;;;;;23.92;74.22;100493.00;4851617;29;46991;-84
2023/04/28 07:17:08;;;;;;;;;2.00;2.00;;;;;24.11;74.42;100498.47;4872572;29;45522;-85
2023/04/28 07:19:36;;;;;;;;;2.00;2.00;;;;;24.46;73.81;100510.44;4870235;29;45529;-84
2023/04/28 10:24:04;;;;;;;;;2.00;2.00;;;;;27.19;56.88;100564.34;4887941;29;45940;-85
2023/04/28 10:26:57;;;;;;;;;3.25;2.00;;;;;27.18;56.83;100563.47;4862659;29;47192;-83
2023/04/28 10:35:50;;;;;;;;;2.50;2.50;;;;;26.39;57.18;100523.34;4863461;29;45000;-84
2023/04/28 10:39:11;;;;;;;;;;;;;;;;;;;;;
2023/04/28 10:44:46;;;;;;;;;1.50;1.50;;;;;26.73;57.49;100576.91;4759860;29;44823;-84
2023/04/28 10:47:40;;;;;;;;;2.00;2.00;;;;;26.63;58.06;100555.69;4751949;29;46167;-85
2023/04/28 10:50:27;;;;;;;;;;;;;;;;;;;;;
2023/04/28 10:53:04;;;;;;;;;1.75;1.75;;;;;26.82;57.97;100544.63;4753664;29;72957;-84
2023/04/28 10:55:38;;;;;;;;;2.00;2.00;;;;;27.22;57.20;100565.03;4740415;30;44865;-84
2023/04/28 10:58:19;;;;;;;;;3.00;3.00;;;;;27.64;56.93;100560.78;4690969;30;44912;-85
2023/04/28 11:00:53;;;;;;;;;4.50;4.50;;;;;27.49;57.11;100568.03;4701485;30;45595;-85
2023/04/28 11:03:50;;;;;;;;;2.00;2.00;;;;;27.99;55.61;100560.50;4679204;30;46265;-84
2023/04/28 11:06:40;;;;;;;;;2.25;2.25;;;;;27.80;56.11;100560.72;4685566;30;44953;-84
2023/04/28 11:09:13;;;;;;;;;2.00;2.00;;;;;27.93;53.71;100563.63;4678536;30;45352;-86
2023/04/28 11:12:11;;;;;;;;;2.75;2.50;;;;;27.76;54.96;100525.50;4702662;29;47072;-84
2023/04/28 11:14:48;;;;;;;;;1.50;1.50;;;;;27.95;53.76;100567.13;4753968;29;44961;-85
2023/04/28 11:17:42;;;;;;;;;2.00;2.00;;;;;27.96;54.10;100555.25;4775790;29;44799;-85
2023/04/28 11:20:13;;;;;;;;;2.00;2.00;;;;;27.77;54.42;100527.25;4785272;29;45692;-85
2023/04/28 11:22:40;;;;;;;;;3.00;3.00;;;;;27.59;54.57;100524.69;4817433;29;46828;-83
2023/04/28 11:25:21;;;;;;;;;2.00;2.00;;;;;28.01;54.01;100554.94;4838506;29;44812;-84
2023/04/28 11:28:15;;;;;;;;;1.75;1.00;;;;;27.76;53.65;100545.50;4836101;29;45498;-85
2023/04/28 11:30:59;;;;;;;;;3.00;2.00;;;;;27.77;53.75;100563.63;4800891;29;45621;-83
2023/04/28 11:33:35;;;;;;;;;1.25;1.25;;;;;27.64;54.43;100541.66;4798435;29;47025;-84
2023/04/28 11:36:57;;;;;;;;;2.00;2.00;;;;;28.06;54.31;100542.75;4804115;29;45392;-83
2023/04/28 11:40:40;;;;;;;;;;;;;;;;;;;;;
2023/04/28 11:50:54;;;;;;;;;1.50;1.50;;;;;28.55;52.15;100544.28;4815584;29;44834;-84
2023/04/28 11:53:11;;;;;;;;;1.75;1.75;;;;;28.32;49.86;100540.25;4852397;29;45285;-84
2023/04/28 11:56:28;;;;;;;;;;;;;;;;;;;;;
2023/04/28 11:59:45;;;;;;;;;1.25;1.00;;;;;27.68;52.16;100528.69;4857874;29;75031;-85
2023/04/28 12:02:46;;;;;;;;;;;;;;;;;;;;;
2023/04/28 12:06:43;;;;;;;;;;;;;;;;;;;;;
2023/04/28 12:13:19;;;;;;;;;;;;;;;;;;;;;
2023/04/28 12:15:57;;;;;;;;;2.00;2.00;;;;;28.07;52.44;100510.81;4789403;29;73321;-85
2023/04/28 12:18:26;;;;;;;;;3.00;3.00;;;;;28.11;52.38;100521.47;4776854;29;45709;-86
2023/04/28 12:21:24;;;;;;;;;2.50;2.50;;;;;27.80;52.04;100505.19;4765460;29;45606;-86
2023/04/28 12:24:27;;;;;;;;;1.75;1.75;;;;;28.07;49.32;100543.63;4790985;29;46742;-84
2023/04/28 12:26:53;;;;;;;;;2.00;2.00;;;;;27.82;50.49;100536.91;4778918;29;45819;-86
2023/04/28 12:29:39;;;;;;;;;1.00;1.00;;;;;28.05;49.39;100543.72;4883291;23;45872;-87
2023/04/28 12:32:06;;;;;;;;;1.00;1.00;;;;;27.40;50.31;100537.66;4872713;29;45803;-85
2023/04/28 12:37:08;;;;;;;;;1.00;1.00;;;;;27.24;49.43;100557.66;4946557;23;45449;-87
2023/04/28 12:39:38;;;;;;;;;1.00;1.00;;;;;27.56;49.66;100519.38;4890535;29;44759;-87
2023/04/28 12:42:17;;;;;;;;;1.00;1.00;;;;;28.04;50.86;100547.44;4876083;29;45365;-87
2023/04/28 12:44:44;;;;;;;;;1.50;1.50;;;;;27.65;49.83;100516.09;4865090;29;45530;-86
2023/04/28 12:47:09;;;;;;;;;0.00;0.00;;;;;27.83;49.46;100527.72;4873684;29;45804;-85
2023/04/28 12:49:37;;;;;;;;;1.00;1.00;;;;;28.09;49.20;100536.22;4875457;29;45297;-86
2023/04/28 12:52:04;;;;;;;;;0.00;0.00;;;;;27.78;48.05;100520.81;4875218;29;45248;-85
2023/04/28 12:54:30;;;;;;;;;0.00;0.00;;;;;27.66;48.03;100552.50;4874253;29;46701;-84
2023/04/28 12:56:55;;;;;;;;;1.00;1.00;;;;;27.61;49.20;100547.31;4871148;29;45474;-86
2023/04/28 12:59:22;;;;;;;;;1.00;1.00;;;;;27.79;49.38;100548.03;4871060;29;45479;-85
2023/04/28 13:01:49;;;;;;;;;0.00;0.00;;;;;27.39;49.67;100549.53;4871913;29;45405;-85
2023/04/28 13:04:23;;;;;;;;;1.50;1.50;;;;;27.58;47.49;100555.69;4857732;29;46932;-85
2023/04/28 13:06:57;;;;;;;;;1.00;1.00;;;;;27.40;49.61;100529.47;4876634;29;45716;-87
2023/04/28 13:09:26;;;;;;;;;1.00;1.00;;;;;27.36;49.17;100549.75;4854057;29;45444;-86
2023/04/28 13:15:17;;;;;;;;;1.00;1.00;;;;;27.19;48.16;100542.50;4879953;29;44857;-85
2023/04/28 13:18:09;;;;;;;;;0.00;0.00;;;;;27.58;47.36;100533.81;4860646;29;45432;-86
2023/04/28 13:20:37;;;;;;;;;1.00;1.00;;;;;27.37;47.51;100546.03;4858371;29;44930;-85
2023/04/28 13:23:05;;;;;;;;;2.00;1.75;;;;;27.66;47.28;100526.03;4854810;29;45487;-84
2023/04/28 13:26:05;;;;;;;;;2.00;2.00;;;;;27.86;46.25;100532.16;4872622;29;47673;-86
2023/04/28 13:29:02;;;;;;;;;1.50;1.50;;;;;27.97;46.28;100529.66;4864121;29;45378;-84
2023/04/28 13:31:32;;;;;;;;;1.00;1.00;;;;;27.70;45.07;100527.63;4878610;29;45915;-85
2023/04/28 13:34:04;;;;;;;;;0.00;0.00;;;;;28.12;43.51;100550.59;4894153;29;44917;-85
2023/04/28 13:36:44;;;;;;;;;0.00;0.00;;;;;28.27;42.91;100550.59;4876611;29;45444;-85
2023/04/28 13:39:14;;;;;;;;;0.50;0.50;;;;;28.29;44.26;100552.25;4859049;29;45391;-87
2023/04/28 13:42:04;;;;;;;;;1.00;1.00;;;;;28.34;44.17;100519.16;4856915;29;45418;-85
2023/04/28 13:44:38;;;;;;;;;2.00;1.00;;;;;28.46;43.87;100521.09;4837286;29;44858;-85
2023/04/28 13:47:11;;;;;;;;;0.00;0.00;;;;;28.54;41.91;100537.03;4822699;29;45420;-85
2023/04/28 13:49:38;;;;;;;;;0.60;0.60;;;;;28.22;41.09;100560.94;4832739;29;45382;-86
2023/04/28 13:52:24;;;;;;;;;0.00;0.00;;;;;28.33;42.58;100536.53;4842643;29;44914;-87
2023/04/28 13:55:27;;;;;;;;;1.00;1.00;;;;;28.84;41.20;100525.94;4851828;29;44874;-86
2023/04/28 13:58:06;;;;;;;;;1.00;1.00;;;;;29.76;41.29;100545.44;4851485;29;45587;-86
2023/04/28 14:03:56;;;;;;;;;0.00;0.00;;;;;33.77;37.52;100502.38;4852596;29;45300;-86
2023/04/28 14:06:30;;;;;;;;;0.00;0.00;;;;;35.40;34.96;100535.53;4842850;29;45396;-87
2023/04/28 14:12:21;;;;;;;;;1.00;1.00;;;;;38.32;34.33;100541.59;4800172;29;45321;-84
2023/04/28 14:14:48;;;;;;;;;0.00;0.00;;;;;39.16;32.99;100531.56;4798988;29;45490;-84
2023/04/28 14:17:16;;;;;;;;;1.00;1.00;;;;;38.21;32.10;100537.16;4775458;29;46048;-84
2023/04/28 14:19:49;;;;;;;;;0.00;0.00;;;;;37.47;31.25;100527.31;4798842;29;45954;-84
2023/04/28 14:22:18;;;;;;;;;0.20;0.20;;;;;37.22;29.47;100535.38;4767861;29;45414;-84
2023/04/28 14:25:10;;;;;;;;;1.00;1.00;;;;;37.24;29.29;100505.56;4796499;29;45430;-84
2023/04/28 14:27:35;;;;;;;;;1.50;1.50;;;;;35.55;31.62;100533.22;4795611;29;45569;-85
2023/04/28 14:30:01;;;;;;;;;1.00;1.00;;;;;35.51;32.46;100508.72;4796218;29;46987;-87
2023/04/28 14:32:26;;;;;;;;;0.25;0.25;;;;;36.28;32.45;100531.84;4784362;29;45612;-86
2023/04/28 14:34:54;;;;;;;;;1.25;0.50;;;;;37.03;32.36;100530.81;4777440;29;45431;-86
2023/04/28 14:37:21;;;;;;;;;0.00;0.00;;;;;37.35;31.79;100534.09;4801632;29;45548;-85
2023/04/28 14:39:47;;;;;;;;;0.00;0.00;;;;;36.78;30.13;100504.69;4811644;29;46873;-86
2023/04/28 14:42:16;;;;;;;;;0.00;0.00;;;;;35.69;32.05;100520.84;4792715;29;45454;-87
2023/04/28 14:44:42;;;;;;;;;0.00;0.00;;;;;34.93;32.59;100504.00;4795328;29;45422;-85
2023/04/28 14:47:57;;;;;;;;;0.00;0.00;;;;;35.24;32.51;100529.69;4796616;29;45567;-85
2023/04/28 14:50:23;;;;;;;;;0.50;0.50;;;;;34.38;31.15;100530.09;4878187;29;45276;-86
2023/04/28 14:52:48;;;;;;;;;1.25;1.25;;;;;34.46;33.22;100541.31;4865994;29;45085;-86
2023/04/28 14:55:13;;;;;;;;;0.50;0.50;;;;;34.30;32.61;100534.53;4851265;29;45687;-87
2023/04/28 14:57:39;;;;;;;;;0.25;0.00;;;;;34.29;32.51;100543.84;4870452;29;45380;-85
2023/04/28 15:00:08;;;;;;;;;0.50;0.50;;;;;34.86;33.58;100528.53;4874064;29;48171;-85
2023/04/28 15:02:34;;;;;;;;;0.00;0.00;;;;;34.75;32.65;100531.44;4869820;29;45468;-85
2023/04/28 15:05:00;;;;;;;;;0.00;0.00;;;;;34.69;32.57;100534.75;4879847;29;45431;-86
2023/04/28 15:07:30;;;;;;;;;0.00;0.00;;;;;34.84;32.79;100534.25;4868155;29;45321;-86
2023/04/28 15:09:56;;;;;;;;;0.25;0.25;;;;;34.49;31.36;100529.13;4868560;29;48481;-85
2023/04/28 15:15:43;;;;;;;;;0.00;0.00;;;;;34.62;33.76;100531.63;4869323;29;46697;-86
2023/04/28 15:18:09;;;;;;;;;0.00;0.00;;;;;34.88;32.19;100542.22;4847338;29;45438;-87
2023/04/28 15:20:37;;;;;;;;;0.00;0.00;;;;;34.61;32.65;100529.91;4864596;29;45581;-84
2023/04/28 15:23:02;;;;;;;;;0.20;0.00;;;;;34.30;32.87;100546.47;4851967;29;45463;-85
2023/04/28 15:25:29;;;;;;;;;2.00;2.00;;;;;34.36;33.15;100536.75;4868001;29;45416;-85
2023/04/28 15:27:57;;;;;;;;;0.25;0.25;;;;;33.33;34.03;100540.13;4864387;29;45382;-85
2023/04/28 15:30:22;;;;;;;;;0.50;0.50;;;;;32.54;34.29;100542.97;4867445;29;45433;-85
2023/04/28 15:32:48;;;;;;;;;0.25;0.25;;;;;32.25;35.18;100547.06;4850357;29;45883;-85
2023/04/28 15:35:13;;;;;;;;;1.75;1.75;;;;;31.89;34.98;100542.59;4849752;29;45372;-86
2023/04/28 15:37:43;;;;;;;;;0.00;0.00;;;;;31.84;35.80;100540.19;4859119;29;45551;-85
2023/04/28 15:40:11;;;;;;;;;0.50;0.50;;;;;31.60;35.65;100548.50;4864960;29;45382;-85
2023/04/28 15:42:38;;;;;;;;;0.80;0.80;;;;;31.23;35.26;100545.78;4850039;29;46188;-85
2023/04/28 15:45:04;;;;;;;;;0.25;0.25;;;;;30.85;35.98;100546.75;4867720;29;45490;-85
2023/04/28 15:47:29;;;;;;;;;0.00;0.00;;;;;30.38;36.08;100553.88;4866344;29;44801;-85
2023/04/28 15:49:57;;;;;;;;;0.50;0.50;;;;;30.00;37.10;100551.94;4868817;29;46989;-85
2023/04/28 15:52:23;;;;;;;;;0.40;0.00;;;;;29.76;37.35;100556.41;4851981;29;45984;-85
2023/04/28 15:54:48;;;;;;;;;1.00;1.00;;;;;29.68;38.16;100556.91;4869441;29;45627;-86
2023/04/28 16:00:36;;;;;;;;;0.25;0.25;;;;;29.32;38.37;100553.81;4880026;29;45425;-85
2023/04/28 16:03:02;;;;;;;;;1.00;1.00;;;;;29.21;38.42;100555.50;4871274;29;45428;-86
2023/04/28 16:05:27;;;;;;;;;2.00;2.00;;;;;29.19;39.06;100558.38;4856030;29;45369;-85